sensor_id;sensor_type;location;lat;lon;timestamp;P1;durP1;ratioP1;P2;durP2;ratioP2
18378;SDS011;27025;51.986;5.984;2023-06-24T00:02:02;7.67;;;6.93;;
18378;SDS011;27025;51.986;5.984;2023-06-24T00:04:28;8.40;;;7.23;;
18378;SDS011;27025;51.986;5.984;2023-06-24T00:06:54;9.33;;;7.07;;
18378;SDS011;27025;51.986;5.984;2023-06-24T00:09:24;8.30;;;7.43;;
18378;SDS011;27025;51.986;5.984;2023-06-24T00:11:50;8.20;;;7.50;;
18378;SDS011;27025;51.986;5.984;2023-06-24T00:14:16;8.83;;;7.27;;
18378;SDS011;27025;51.986;5.984;2023-06-24T00:16:42;7.93;;;7.17;;
18378;SDS011;27025;51.986;5.984;2023-06-24T00:19:08;9.47;;;7.13;;
18378;SDS011;27025;51.986;5.984;2023-06-24T00:21:34;7.67;;;6.93;;
18378;SDS011;27025;51.986;5.984;2023-06-24T00:24:02;8.53;;;7.20;;
18378;SDS011;27025;51.986;5.984;2023-06-24T00:26:29;7.83;;;7.13;;
18378;SDS011;27025;51.986;5.984;2023-06-24T00:28:57;8.60;;;7.70;;
18378;SDS011;27025;51.986;5.984;2023-06-24T00:31:23;8.03;;;7.23;;
18378;SDS011;27025;51.986;5.984;2023-06-24T00:33:49;8.00;;;7.27;;
18378;SDS011;27025;51.986;5.984;2023-06-24T00:36:17;7.87;;;7.17;;
18378;SDS011;27025;51.986;5.984;2023-06-24T00:38:43;7.83;;;7.03;;
18378;SDS011;27025;51.986;5.984;2023-06-24T00:41:09;8.63;;;7.73;;
18378;SDS011;27025;51.986;5.984;2023-06-24T00:43:35;8.03;;;7.27;;
18378;SDS011;27025;51.986;5.984;2023-06-24T00:46:03;8.80;;;7.90;;
18378;SDS011;27025;51.986;5.984;2023-06-24T00:48:29;8.57;;;7.77;;
18378;SDS011;27025;51.986;5.984;2023-06-24T00:50:56;9.70;;;7.77;;
18378;SDS011;27025;51.986;5.984;2023-06-24T00:53:23;9.90;;;7.50;;
18378;SDS011;27025;51.986;5.984;2023-06-24T00:55:50;8.40;;;7.70;;
18378;SDS011;27025;51.986;5.984;2023-06-24T00:58:17;10.93;;;7.50;;
18378;SDS011;27025;51.986;5.984;2023-06-24T01:00:46;8.73;;;7.83;;
18378;SDS011;27025;51.986;5.984;2023-06-24T01:03:13;8.90;;;8.00;;
18378;SDS011;27025;51.986;5.984;2023-06-24T01:05:41;9.03;;;7.70;;
18378;SDS011;27025;51.986;5.984;2023-06-24T01:08:07;8.17;;;7.30;;
18378;SDS011;27025;51.986;5.984;2023-06-24T01:10:34;7.87;;;7.13;;
18378;SDS011;27025;51.986;5.984;2023-06-24T01:13:00;8.70;;;7.80;;
18378;SDS011;27025;51.986;5.984;2023-06-24T01:15:27;10.50;;;7.70;;
18378;SDS011;27025;51.986;5.984;2023-06-24T01:17:59;8.37;;;7.57;;
18378;SDS011;27025;51.986;5.984;2023-06-24T01:25:50;8.43;;;7.57;;
18378;SDS011;27025;51.986;5.984;2023-06-24T01:33:19;9.33;;;8.07;;
18378;SDS011;27025;51.986;5.984;2023-06-24T01:35:48;8.20;;;7.40;;
18378;SDS011;27025;51.986;5.984;2023-06-24T01:38:21;7.90;;;7.13;;
18378;SDS011;27025;51.986;5.984;2023-06-24T01:40:47;8.40;;;7.60;;
18378;SDS011;27025;51.986;5.984;2023-06-24T01:43:14;8.10;;;7.30;;
18378;SDS011;27025;51.986;5.984;2023-06-24T01:45:45;8.73;;;7.10;;
18378;SDS011;27025;51.986;5.984;2023-06-24T01:48:14;7.60;;;6.90;;
18378;SDS011;27025;51.986;5.984;2023-06-24T01:50:50;8.47;;;7.57;;
18378;SDS011;27025;51.986;5.984;2023-06-24T01:53:18;9.17;;;7.70;;
18378;SDS011;27025;51.986;5.984;2023-06-24T01:55:44;9.07;;;7.37;;
18378;SDS011;27025;51.986;5.984;2023-06-24T01:58:11;8.73;;;7.30;;
18378;SDS011;27025;51.986;5.984;2023-06-24T02:00:38;9.03;;;7.40;;
18378;SDS011;27025;51.986;5.984;2023-06-24T02:03:04;8.47;;;7.30;;
18378;SDS011;27025;51.986;5.984;2023-06-24T02:05:31;8.53;;;7.53;;
18378;SDS011;27025;51.986;5.984;2023-06-24T02:07:57;8.83;;;7.33;;
18378;SDS011;27025;51.986;5.984;2023-06-24T02:10:24;8.67;;;7.87;;
18378;SDS011;27025;51.986;5.984;2023-06-24T02:12:50;9.70;;;7.60;;
18378;SDS011;27025;51.986;5.984;2023-06-24T02:15:17;9.40;;;8.50;;
18378;SDS011;27025;51.986;5.984;2023-06-24T02:17:43;9.73;;;8.77;;
18378;SDS011;27025;51.986;5.984;2023-06-24T02:20:12;10.10;;;8.93;;
18378;SDS011;27025;51.986;5.984;2023-06-24T02:22:40;10.33;;;9.33;;
18378;SDS011;27025;51.986;5.984;2023-06-24T02:25:06;10.93;;;9.57;;
18378;SDS011;27025;51.986;5.984;2023-06-24T02:27:34;10.57;;;9.57;;
18378;SDS011;27025;51.986;5.984;2023-06-24T02:30:02;10.77;;;9.70;;
18378;SDS011;27025;51.986;5.984;2023-06-24T02:32:28;11.93;;;9.47;;
18378;SDS011;27025;51.986;5.984;2023-06-24T02:34:56;12.37;;;9.17;;
18378;SDS011;27025;51.986;5.984;2023-06-24T02:37:23;10.37;;;9.37;;
18378;SDS011;27025;51.986;5.984;2023-06-24T02:39:49;10.60;;;9.23;;
18378;SDS011;27025;51.986;5.984;2023-06-24T02:42:15;10.37;;;9.23;;
18378;SDS011;27025;51.986;5.984;2023-06-24T02:44:41;9.40;;;8.47;;
18378;SDS011;27025;51.986;5.984;2023-06-24T02:47:09;9.83;;;8.83;;
18378;SDS011;27025;51.986;5.984;2023-06-24T02:49:36;9.20;;;8.27;;
18378;SDS011;27025;51.986;5.984;2023-06-24T02:52:03;9.50;;;8.60;;
18378;SDS011;27025;51.986;5.984;2023-06-24T02:54:29;9.67;;;8.77;;
18378;SDS011;27025;51.986;5.984;2023-06-24T02:56:55;9.50;;;8.60;;
18378;SDS011;27025;51.986;5.984;2023-06-24T02:59:26;9.63;;;8.73;;
18378;SDS011;27025;51.986;5.984;2023-06-24T03:01:52;9.43;;;8.60;;
18378;SDS011;27025;51.986;5.984;2023-06-24T03:04:19;9.97;;;8.93;;
18378;SDS011;27025;51.986;5.984;2023-06-24T03:06:45;10.37;;;9.20;;
18378;SDS011;27025;51.986;5.984;2023-06-24T03:09:12;10.23;;;9.27;;
18378;SDS011;27025;51.986;5.984;2023-06-24T03:11:41;9.70;;;8.77;;
18378;SDS011;27025;51.986;5.984;2023-06-24T03:14:08;11.67;;;9.43;;
18378;SDS011;27025;51.986;5.984;2023-06-24T03:16:34;9.60;;;8.70;;
18378;SDS011;27025;51.986;5.984;2023-06-24T03:19:00;8.97;;;8.17;;
18378;SDS011;27025;51.986;5.984;2023-06-24T03:21:27;11.63;;;9.40;;
18378;SDS011;27025;51.986;5.984;2023-06-24T03:23:53;9.33;;;8.30;;
18378;SDS011;27025;51.986;5.984;2023-06-24T03:26:20;10.00;;;8.97;;
18378;SDS011;27025;51.986;5.984;2023-06-24T03:28:46;9.33;;;8.37;;
18378;SDS011;27025;51.986;5.984;2023-06-24T03:31:12;9.37;;;8.43;;
18378;SDS011;27025;51.986;5.984;2023-06-24T03:33:40;10.27;;;9.27;;
18378;SDS011;27025;51.986;5.984;2023-06-24T03:36:09;9.40;;;8.60;;
18378;SDS011;27025;51.986;5.984;2023-06-24T03:38:35;9.73;;;8.73;;
18378;SDS011;27025;51.986;5.984;2023-06-24T03:41:02;9.83;;;8.93;;
18378;SDS011;27025;51.986;5.984;2023-06-24T03:43:28;9.87;;;8.83;;
18378;SDS011;27025;51.986;5.984;2023-06-24T03:45:54;9.63;;;8.77;;
18378;SDS011;27025;51.986;5.984;2023-06-24T03:48:20;9.53;;;8.60;;
18378;SDS011;27025;51.986;5.984;2023-06-24T03:50:46;10.00;;;9.00;;
18378;SDS011;27025;51.986;5.984;2023-06-24T03:53:12;9.60;;;8.53;;
18378;SDS011;27025;51.986;5.984;2023-06-24T03:55:38;10.30;;;9.13;;
18378;SDS011;27025;51.986;5.984;2023-06-24T03:58:04;10.50;;;9.40;;
18378;SDS011;27025;51.986;5.984;2023-06-24T04:00:30;9.77;;;8.80;;
18378;SDS011;27025;51.986;5.984;2023-06-24T04:02:56;9.90;;;8.90;;
18378;SDS011;27025;51.986;5.984;2023-06-24T04:05:25;9.70;;;8.80;;
18378;SDS011;27025;51.986;5.984;2023-06-24T04:07:51;10.03;;;9.03;;
18378;SDS011;27025;51.986;5.984;2023-06-24T04:10:18;9.90;;;9.00;;
18378;SDS011;27025;51.986;5.984;2023-06-24T04:12:45;9.40;;;8.50;;
18378;SDS011;27025;51.986;5.984;2023-06-24T04:15:11;9.67;;;8.77;;
18378;SDS011;27025;51.986;5.984;2023-06-24T04:17:37;9.77;;;8.87;;
18378;SDS011;27025;51.986;5.984;2023-06-24T04:20:03;9.83;;;8.53;;
18378;SDS011;27025;51.986;5.984;2023-06-24T04:22:33;10.80;;;9.07;;
18378;SDS011;27025;51.986;5.984;2023-06-24T04:24:59;10.07;;;9.17;;
18378;SDS011;27025;51.986;5.984;2023-06-24T04:27:25;11.13;;;9.33;;
18378;SDS011;27025;51.986;5.984;2023-06-24T04:29:51;10.17;;;9.33;;
18378;SDS011;27025;51.986;5.984;2023-06-24T04:32:17;10.60;;;9.60;;
18378;SDS011;27025;51.986;5.984;2023-06-24T04:34:43;10.13;;;9.20;;
18378;SDS011;27025;51.986;5.984;2023-06-24T04:37:09;10.90;;;9.77;;
18378;SDS011;27025;51.986;5.984;2023-06-24T04:39:35;10.10;;;9.20;;
18378;SDS011;27025;51.986;5.984;2023-06-24T04:42:01;10.93;;;9.83;;
18378;SDS011;27025;51.986;5.984;2023-06-24T04:44:27;10.90;;;9.90;;
18378;SDS011;27025;51.986;5.984;2023-06-24T04:46:53;10.77;;;9.57;;
18378;SDS011;27025;51.986;5.984;2023-06-24T04:49:19;11.47;;;10.37;;
18378;SDS011;27025;51.986;5.984;2023-06-24T04:51:45;12.50;;;10.23;;
18378;SDS011;27025;51.986;5.984;2023-06-24T04:54:11;11.83;;;10.63;;
18378;SDS011;27025;51.986;5.984;2023-06-24T04:56:37;11.33;;;10.27;;
18378;SDS011;27025;51.986;5.984;2023-06-24T04:59:03;11.90;;;10.70;;
18378;SDS011;27025;51.986;5.984;2023-06-24T05:01:29;12.33;;;11.13;;
18378;SDS011;27025;51.986;5.984;2023-06-24T05:03:55;11.87;;;10.80;;
18378;SDS011;27025;51.986;5.984;2023-06-24T05:06:21;15.37;;;11.20;;
18378;SDS011;27025;51.986;5.984;2023-06-24T05:08:48;11.40;;;10.37;;
18378;SDS011;27025;51.986;5.984;2023-06-24T05:11:14;12.50;;;11.30;;
18378;SDS011;27025;51.986;5.984;2023-06-24T05:13:40;13.57;;;12.27;;
18378;SDS011;27025;51.986;5.984;2023-06-24T05:16:06;14.30;;;12.80;;
18378;SDS011;27025;51.986;5.984;2023-06-24T05:18:32;14.27;;;12.77;;
18378;SDS011;27025;51.986;5.984;2023-06-24T05:20:58;14.03;;;12.73;;
18378;SDS011;27025;51.986;5.984;2023-06-24T05:23:24;14.57;;;12.90;;
18378;SDS011;27025;51.986;5.984;2023-06-24T05:25:50;14.33;;;13.03;;
18378;SDS011;27025;51.986;5.984;2023-06-24T05:28:16;14.20;;;12.80;;
18378;SDS011;27025;51.986;5.984;2023-06-24T05:30:44;13.27;;;11.97;;
18378;SDS011;27025;51.986;5.984;2023-06-24T05:33:10;13.43;;;12.10;;
18378;SDS011;27025;51.986;5.984;2023-06-24T05:35:36;13.33;;;11.93;;
18378;SDS011;27025;51.986;5.984;2023-06-24T05:38:05;13.20;;;12.00;;
18378;SDS011;27025;51.986;5.984;2023-06-24T05:40:31;14.00;;;12.47;;
18378;SDS011;27025;51.986;5.984;2023-06-24T05:42:57;13.77;;;12.37;;
18378;SDS011;27025;51.986;5.984;2023-06-24T05:45:23;14.77;;;13.37;;
18378;SDS011;27025;51.986;5.984;2023-06-24T05:47:49;15.07;;;13.50;;
18378;SDS011;27025;51.986;5.984;2023-06-24T05:50:15;15.97;;;13.57;;
18378;SDS011;27025;51.986;5.984;2023-06-24T05:52:41;14.63;;;13.27;;
18378;SDS011;27025;51.986;5.984;2023-06-24T05:55:07;12.77;;;11.47;;
18378;SDS011;27025;51.986;5.984;2023-06-24T05:57:34;13.13;;;11.83;;
18378;SDS011;27025;51.986;5.984;2023-06-24T06:00:00;10.30;;;8.90;;
18378;SDS011;27025;51.986;5.984;2023-06-24T06:02:28;9.57;;;8.57;;
18378;SDS011;27025;51.986;5.984;2023-06-24T06:04:54;11.33;;;7.87;;
18378;SDS011;27025;51.986;5.984;2023-06-24T06:07:20;10.17;;;7.53;;
18378;SDS011;27025;51.986;5.984;2023-06-24T06:09:46;8.63;;;6.90;;
18378;SDS011;27025;51.986;5.984;2023-06-24T06:12:12;7.63;;;6.43;;
18378;SDS011;27025;51.986;5.984;2023-06-24T06:14:38;8.13;;;7.03;;
18378;SDS011;27025;51.986;5.984;2023-06-24T06:17:04;8.87;;;6.30;;
18378;SDS011;27025;51.986;5.984;2023-06-24T06:19:30;7.90;;;6.07;;
18378;SDS011;27025;51.986;5.984;2023-06-24T06:21:56;9.53;;;7.03;;
18378;SDS011;27025;51.986;5.984;2023-06-24T06:24:22;7.27;;;6.50;;
18378;SDS011;27025;51.986;5.984;2023-06-24T06:26:48;7.03;;;5.70;;
18378;SDS011;27025;51.986;5.984;2023-06-24T06:29:14;8.23;;;6.30;;
18378;SDS011;27025;51.986;5.984;2023-06-24T06:31:40;7.53;;;6.13;;
18378;SDS011;27025;51.986;5.984;2023-06-24T06:34:06;6.23;;;5.17;;
18378;SDS011;27025;51.986;5.984;2023-06-24T06:36:33;7.93;;;5.50;;
18378;SDS011;27025;51.986;5.984;2023-06-24T06:38:59;8.60;;;5.53;;
18378;SDS011;27025;51.986;5.984;2023-06-24T06:41:25;7.33;;;5.37;;
18378;SDS011;27025;51.986;5.984;2023-06-24T06:43:51;6.00;;;5.40;;
18378;SDS011;27025;51.986;5.984;2023-06-24T06:46:17;7.63;;;6.00;;
18378;SDS011;27025;51.986;5.984;2023-06-24T06:48:43;7.03;;;5.90;;
18378;SDS011;27025;51.986;5.984;2023-06-24T06:51:09;7.33;;;6.00;;
18378;SDS011;27025;51.986;5.984;2023-06-24T06:53:36;7.53;;;6.37;;
18378;SDS011;27025;51.986;5.984;2023-06-24T06:56:02;11.83;;;7.13;;
18378;SDS011;27025;51.986;5.984;2023-06-24T06:58:28;8.43;;;6.67;;
18378;SDS011;27025;51.986;5.984;2023-06-24T07:00:54;7.50;;;6.70;;
18378;SDS011;27025;51.986;5.984;2023-06-24T07:03:20;9.23;;;6.73;;
18378;SDS011;27025;51.986;5.984;2023-06-24T07:05:46;7.80;;;6.53;;
18378;SDS011;27025;51.986;5.984;2023-06-24T07:08:12;6.20;;;5.60;;
18378;SDS011;27025;51.986;5.984;2023-06-24T07:10:38;7.53;;;6.47;;
18378;SDS011;27025;51.986;5.984;2023-06-24T07:13:04;7.87;;;6.23;;
18378;SDS011;27025;51.986;5.984;2023-06-24T07:15:30;8.83;;;6.73;;
18378;SDS011;27025;51.986;5.984;2023-06-24T07:17:56;7.60;;;6.47;;
18378;SDS011;27025;51.986;5.984;2023-06-24T07:20:22;10.03;;;7.07;;
18378;SDS011;27025;51.986;5.984;2023-06-24T07:22:48;8.83;;;6.70;;
18378;SDS011;27025;51.986;5.984;2023-06-24T07:25:15;7.90;;;6.33;;
18378;SDS011;27025;51.986;5.984;2023-06-24T07:27:41;7.73;;;6.17;;
18378;SDS011;27025;51.986;5.984;2023-06-24T07:30:07;7.17;;;5.87;;
18378;SDS011;27025;51.986;5.984;2023-06-24T07:32:33;6.40;;;5.80;;
18378;SDS011;27025;51.986;5.984;2023-06-24T07:34:59;9.27;;;7.83;;
18378;SDS011;27025;51.986;5.984;2023-06-24T07:37:25;8.83;;;7.93;;
18378;SDS011;27025;51.986;5.984;2023-06-24T07:39:51;9.07;;;7.10;;
18378;SDS011;27025;51.986;5.984;2023-06-24T07:42:17;8.27;;;7.47;;
18378;SDS011;27025;51.986;5.984;2023-06-24T07:44:44;7.67;;;6.33;;
18378;SDS011;27025;51.986;5.984;2023-06-24T07:47:10;8.43;;;7.63;;
18378;SDS011;27025;51.986;5.984;2023-06-24T07:49:37;7.73;;;6.70;;
18378;SDS011;27025;51.986;5.984;2023-06-24T07:52:03;6.10;;;5.50;;
18378;SDS011;27025;51.986;5.984;2023-06-24T07:54:29;9.47;;;5.53;;
18378;SDS011;27025;51.986;5.984;2023-06-24T07:56:55;6.67;;;4.93;;
18378;SDS011;27025;51.986;5.984;2023-06-24T07:59:22;6.10;;;5.50;;
18378;SDS011;27025;51.986;5.984;2023-06-24T08:01:48;7.17;;;4.90;;
18378;SDS011;27025;51.986;5.984;2023-06-24T08:04:14;5.47;;;4.33;;
18378;SDS011;27025;51.986;5.984;2023-06-24T08:06:41;5.10;;;4.45;;
18378;SDS011;27025;51.986;5.984;2023-06-24T08:09:07;6.55;;;5.25;;
18378;SDS011;27025;51.986;5.984;2023-06-24T08:11:33;7.18;;;6.47;;
18378;SDS011;27025;51.986;5.984;2023-06-24T08:13:59;8.00;;;5.53;;
18378;SDS011;27025;51.986;5.984;2023-06-24T08:16:26;5.53;;;4.50;;
18378;SDS011;27025;51.986;5.984;2023-06-24T08:18:52;6.57;;;5.03;;
18378;SDS011;27025;51.986;5.984;2023-06-24T08:21:18;4.93;;;4.43;;
18378;SDS011;27025;51.986;5.984;2023-06-24T08:23:45;4.93;;;4.22;;
18378;SDS011;27025;51.986;5.984;2023-06-24T08:26:11;4.82;;;4.10;;
18378;SDS011;27025;51.986;5.984;2023-06-24T08:28:37;4.93;;;3.85;;
18378;SDS011;27025;51.986;5.984;2023-06-24T08:31:03;4.28;;;3.88;;
18378;SDS011;27025;51.986;5.984;2023-06-24T08:33:30;3.83;;;3.53;;
18378;SDS011;27025;51.986;5.984;2023-06-24T08:35:56;4.68;;;3.97;;
18378;SDS011;27025;51.986;5.984;2023-06-24T08:38:22;4.57;;;3.67;;
18378;SDS011;27025;51.986;5.984;2023-06-24T08:40:48;4.03;;;3.63;;
18378;SDS011;27025;51.986;5.984;2023-06-24T08:43:15;4.82;;;3.33;;
18378;SDS011;27025;51.986;5.984;2023-06-24T08:45:41;3.78;;;3.47;;
18378;SDS011;27025;51.986;5.984;2023-06-24T08:48:07;5.22;;;4.47;;
18378;SDS011;27025;51.986;5.984;2023-06-24T08:50:39;4.93;;;4.10;;
18378;SDS011;27025;51.986;5.984;2023-06-24T08:53:07;4.70;;;4.13;;
18378;SDS011;27025;51.986;5.984;2023-06-24T08:55:45;5.90;;;4.72;;
18378;SDS011;27025;51.986;5.984;2023-06-24T08:58:12;12.00;;;4.40;;
18378;SDS011;27025;51.986;5.984;2023-06-24T09:00:39;5.65;;;4.72;;
18378;SDS011;27025;51.986;5.984;2023-06-24T09:03:05;4.60;;;4.18;;
18378;SDS011;27025;51.986;5.984;2023-06-24T09:05:31;4.90;;;4.35;;
18378;SDS011;27025;51.986;5.984;2023-06-24T09:07:57;4.50;;;4.10;;
18378;SDS011;27025;51.986;5.984;2023-06-24T09:10:33;5.18;;;4.50;;
18378;SDS011;27025;51.986;5.984;2023-06-24T09:13:02;4.97;;;4.10;;
18378;SDS011;27025;51.986;5.984;2023-06-24T09:15:29;7.82;;;4.03;;
18378;SDS011;27025;51.986;5.984;2023-06-24T09:18:01;5.80;;;5.20;;
18378;SDS011;27025;51.986;5.984;2023-06-24T09:20:28;4.78;;;4.30;;
18378;SDS011;27025;51.986;5.984;2023-06-24T09:23:02;6.13;;;5.03;;
18378;SDS011;27025;51.986;5.984;2023-06-24T09:25:29;8.05;;;4.90;;
18378;SDS011;27025;51.986;5.984;2023-06-24T09:27:59;6.28;;;5.50;;
18378;SDS011;27025;51.986;5.984;2023-06-24T09:30:26;7.07;;;4.57;;
18378;SDS011;27025;51.986;5.984;2023-06-24T09:32:52;6.10;;;5.32;;
18378;SDS011;27025;51.986;5.984;2023-06-24T09:35:39;6.38;;;5.35;;
18378;SDS011;27025;51.986;5.984;2023-06-24T09:38:05;5.28;;;4.78;;
18378;SDS011;27025;51.986;5.984;2023-06-24T09:40:34;5.47;;;4.95;;
18378;SDS011;27025;51.986;5.984;2023-06-24T09:43:02;6.93;;;5.03;;
18378;SDS011;27025;51.986;5.984;2023-06-24T09:45:31;5.20;;;4.53;;
18378;SDS011;27025;51.986;5.984;2023-06-24T09:48:00;6.47;;;5.68;;
18378;SDS011;27025;51.986;5.984;2023-06-24T09:50:27;8.73;;;6.82;;
18378;SDS011;27025;51.986;5.984;2023-06-24T09:52:53;7.20;;;6.03;;
18378;SDS011;27025;51.986;5.984;2023-06-24T09:55:21;5.80;;;4.85;;
18378;SDS011;27025;51.986;5.984;2023-06-24T09:57:49;6.53;;;4.90;;
18378;SDS011;27025;51.986;5.984;2023-06-24T10:00:18;5.10;;;4.63;;
18378;SDS011;27025;51.986;5.984;2023-06-24T10:02:44;6.55;;;4.68;;
18378;SDS011;27025;51.986;5.984;2023-06-24T10:05:14;6.07;;;4.45;;
18378;SDS011;27025;51.986;5.984;2023-06-24T10:07:43;7.60;;;5.30;;
18378;SDS011;27025;51.986;5.984;2023-06-24T10:10:09;6.05;;;5.45;;
18378;SDS011;27025;51.986;5.984;2023-06-24T10:12:35;7.47;;;6.50;;
18378;SDS011;27025;51.986;5.984;2023-06-24T10:15:01;7.88;;;6.57;;
18378;SDS011;27025;51.986;5.984;2023-06-24T10:17:28;8.70;;;6.65;;
18378;SDS011;27025;51.986;5.984;2023-06-24T10:19:57;6.82;;;6.13;;
18378;SDS011;27025;51.986;5.984;2023-06-24T10:22:24;7.63;;;6.85;;
18378;SDS011;27025;51.986;5.984;2023-06-24T10:24:51;7.05;;;5.40;;
18378;SDS011;27025;51.986;5.984;2023-06-24T10:27:21;7.30;;;6.25;;
18378;SDS011;27025;51.986;5.984;2023-06-24T10:29:48;6.47;;;5.88;;
18378;SDS011;27025;51.986;5.984;2023-06-24T10:32:22;6.43;;;5.38;;
18378;SDS011;27025;51.986;5.984;2023-06-24T10:34:55;5.78;;;5.20;;
18378;SDS011;27025;51.986;5.984;2023-06-24T10:39:55;7.47;;;6.25;;
18378;SDS011;27025;51.986;5.984;2023-06-24T10:42:26;8.57;;;6.13;;
18378;SDS011;27025;51.986;5.984;2023-06-24T10:44:55;8.63;;;6.60;;
18378;SDS011;27025;51.986;5.984;2023-06-24T10:47:25;7.38;;;5.40;;
18378;SDS011;27025;51.986;5.984;2023-06-24T10:49:52;7.40;;;5.53;;
18378;SDS011;27025;51.986;5.984;2023-06-24T10:52:18;8.75;;;6.80;;
18378;SDS011;27025;51.986;5.984;2023-06-24T10:54:46;10.27;;;6.60;;
18378;SDS011;27025;51.986;5.984;2023-06-24T10:57:12;7.40;;;6.25;;
18378;SDS011;27025;51.986;5.984;2023-06-24T10:59:41;7.15;;;6.40;;
18378;SDS011;27025;51.986;5.984;2023-06-24T11:02:08;8.25;;;5.55;;
18378;SDS011;27025;51.986;5.984;2023-06-24T11:04:43;7.63;;;5.65;;
18378;SDS011;27025;51.986;5.984;2023-06-24T11:07:10;7.20;;;6.10;;
18378;SDS011;27025;51.986;5.984;2023-06-24T11:09:36;6.10;;;5.50;;
18378;SDS011;27025;51.986;5.984;2023-06-24T11:12:02;6.22;;;4.72;;
18378;SDS011;27025;51.986;5.984;2023-06-24T11:14:29;7.90;;;5.28;;
18378;SDS011;27025;51.986;5.984;2023-06-24T11:17:00;6.28;;;5.40;;
18378;SDS011;27025;51.986;5.984;2023-06-24T11:19:26;6.10;;;5.28;;
18378;SDS011;27025;51.986;5.984;2023-06-24T11:21:52;6.20;;;4.97;;
18378;SDS011;27025;51.986;5.984;2023-06-24T11:24:18;7.95;;;5.68;;
18378;SDS011;27025;51.986;5.984;2023-06-24T11:26:45;9.88;;;5.70;;
18378;SDS011;27025;51.986;5.984;2023-06-24T11:29:11;10.30;;;5.65;;
18378;SDS011;27025;51.986;5.984;2023-06-24T11:31:37;7.18;;;5.70;;
18378;SDS011;27025;51.986;5.984;2023-06-24T11:34:04;5.75;;;5.18;;
18378;SDS011;27025;51.986;5.984;2023-06-24T11:36:30;5.85;;;5.32;;
18378;SDS011;27025;51.986;5.984;2023-06-24T11:38:56;9.30;;;5.80;;
18378;SDS011;27025;51.986;5.984;2023-06-24T11:41:22;6.93;;;6.18;;
18378;SDS011;27025;51.986;5.984;2023-06-24T11:43:50;6.90;;;5.40;;
18378;SDS011;27025;51.986;5.984;2023-06-24T11:46:29;8.35;;;5.10;;
18378;SDS011;27025;51.986;5.984;2023-06-24T11:49:04;5.55;;;4.97;;
18378;SDS011;27025;51.986;5.984;2023-06-24T11:51:30;6.47;;;5.82;;
18378;SDS011;27025;51.986;5.984;2023-06-24T11:54:00;6.50;;;5.70;;
18378;SDS011;27025;51.986;5.984;2023-06-24T11:56:37;5.57;;;4.43;;
18378;SDS011;27025;51.986;5.984;2023-06-24T11:59:03;7.38;;;4.40;;
18378;SDS011;27025;51.986;5.984;2023-06-24T12:01:31;7.63;;;6.38;;
18378;SDS011;27025;51.986;5.984;2023-06-24T12:03:59;6.10;;;5.50;;
18378;SDS011;27025;51.986;5.984;2023-06-24T12:06:25;5.10;;;4.60;;
18378;SDS011;27025;51.986;5.984;2023-06-24T12:08:51;4.95;;;4.45;;
18378;SDS011;27025;51.986;5.984;2023-06-24T12:11:18;4.72;;;4.32;;
18378;SDS011;27025;51.986;5.984;2023-06-24T12:13:44;9.40;;;5.22;;
18378;SDS011;27025;51.986;5.984;2023-06-24T12:16:10;4.80;;;4.28;;
18378;SDS011;27025;51.986;5.984;2023-06-24T12:18:36;7.72;;;4.60;;
18378;SDS011;27025;51.986;5.984;2023-06-24T12:21:02;5.72;;;4.70;;
18378;SDS011;27025;51.986;5.984;2023-06-24T12:23:28;6.20;;;5.15;;
18378;SDS011;27025;51.986;5.984;2023-06-24T12:25:54;5.95;;;4.85;;
18378;SDS011;27025;51.986;5.984;2023-06-24T12:28:20;6.95;;;5.05;;
18378;SDS011;27025;51.986;5.984;2023-06-24T12:30:49;4.55;;;4.15;;
18378;SDS011;27025;51.986;5.984;2023-06-24T12:33:16;6.32;;;5.35;;
18378;SDS011;27025;51.986;5.984;2023-06-24T12:35:44;5.68;;;5.03;;
18378;SDS011;27025;51.986;5.984;2023-06-24T12:38:11;6.30;;;4.40;;
18378;SDS011;27025;51.986;5.984;2023-06-24T12:40:37;7.85;;;4.65;;
18378;SDS011;27025;51.986;5.984;2023-06-24T12:43:04;4.40;;;4.00;;
18378;SDS011;27025;51.986;5.984;2023-06-24T12:45:30;5.85;;;3.95;;
18378;SDS011;27025;51.986;5.984;2023-06-24T12:47:56;5.22;;;4.28;;
18378;SDS011;27025;51.986;5.984;2023-06-24T12:50:22;4.57;;;4.13;;
18378;SDS011;27025;51.986;5.984;2023-06-24T12:52:48;5.10;;;3.97;;
18378;SDS011;27025;51.986;5.984;2023-06-24T12:55:14;4.47;;;3.70;;
18378;SDS011;27025;51.986;5.984;2023-06-24T12:57:40;6.97;;;4.38;;
18378;SDS011;27025;51.986;5.984;2023-06-24T13:00:06;5.57;;;4.03;;
18378;SDS011;27025;51.986;5.984;2023-06-24T13:02:33;6.28;;;5.13;;
18378;SDS011;27025;51.986;5.984;2023-06-24T13:04:59;5.10;;;4.60;;
18378;SDS011;27025;51.986;5.984;2023-06-24T13:07:25;6.18;;;4.82;;
18378;SDS011;27025;51.986;5.984;2023-06-24T13:09:51;4.15;;;3.75;;
18378;SDS011;27025;51.986;5.984;2023-06-24T13:12:17;4.40;;;4.00;;
18378;SDS011;27025;51.986;5.984;2023-06-24T13:14:43;4.93;;;4.22;;
18378;SDS011;27025;51.986;5.984;2023-06-24T13:17:09;4.78;;;3.80;;
18378;SDS011;27025;51.986;5.984;2023-06-24T13:19:35;5.18;;;4.05;;
18378;SDS011;27025;51.986;5.984;2023-06-24T13:22:01;5.38;;;3.70;;
18378;SDS011;27025;51.986;5.984;2023-06-24T13:24:27;4.90;;;3.50;;
18378;SDS011;27025;51.986;5.984;2023-06-24T13:26:53;5.90;;;4.22;;
18378;SDS011;27025;51.986;5.984;2023-06-24T13:29:20;4.32;;;3.92;;
18378;SDS011;27025;51.986;5.984;2023-06-24T13:31:46;5.35;;;4.32;;
18378;SDS011;27025;51.986;5.984;2023-06-24T13:34:12;6.03;;;5.00;;
18378;SDS011;27025;51.986;5.984;2023-06-24T13:36:38;5.85;;;5.25;;
18378;SDS011;27025;51.986;5.984;2023-06-24T13:39:06;5.95;;;4.65;;
18378;SDS011;27025;51.986;5.984;2023-06-24T13:41:32;4.85;;;4.20;;
18378;SDS011;27025;51.986;5.984;2023-06-24T13:43:59;5.32;;;4.35;;
18378;SDS011;27025;51.986;5.984;2023-06-24T13:46:25;4.55;;;3.72;;
18378;SDS011;27025;51.986;5.984;2023-06-24T13:48:52;4.10;;;3.75;;
18378;SDS011;27025;51.986;5.984;2023-06-24T13:51:18;5.57;;;4.53;;
18378;SDS011;27025;51.986;5.984;2023-06-24T13:53:45;5.20;;;4.47;;
18378;SDS011;27025;51.986;5.984;2023-06-24T13:56:11;5.30;;;4.82;;
18378;SDS011;27025;51.986;5.984;2023-06-24T13:58:37;5.00;;;4.20;;
18378;SDS011;27025;51.986;5.984;2023-06-24T14:01:03;4.65;;;4.25;;
18378;SDS011;27025;51.986;5.984;2023-06-24T14:03:29;8.80;;;4.88;;
18378;SDS011;27025;51.986;5.984;2023-06-24T14:05:55;7.43;;;4.40;;
18378;SDS011;27025;51.986;5.984;2023-06-24T14:08:22;6.40;;;4.43;;
18378;SDS011;27025;51.986;5.984;2023-06-24T14:10:48;4.90;;;4.45;;
18378;SDS011;27025;51.986;5.984;2023-06-24T14:13:14;5.10;;;4.00;;
18378;SDS011;27025;51.986;5.984;2023-06-24T14:15:40;5.07;;;4.20;;
18378;SDS011;27025;51.986;5.984;2023-06-24T14:18:06;4.95;;;4.32;;
18378;SDS011;27025;51.986;5.984;2023-06-24T14:20:33;4.85;;;4.45;;
18378;SDS011;27025;51.986;5.984;2023-06-24T14:22:59;6.90;;;4.90;;
18378;SDS011;27025;51.986;5.984;2023-06-24T14:25:25;5.70;;;5.10;;
18378;SDS011;27025;51.986;5.984;2023-06-24T14:27:51;8.35;;;4.85;;
18378;SDS011;27025;51.986;5.984;2023-06-24T14:30:17;5.75;;;5.25;;
18378;SDS011;27025;51.986;5.984;2023-06-24T14:32:43;5.18;;;4.68;;
18378;SDS011;27025;51.986;5.984;2023-06-24T14:35:11;5.22;;;4.72;;
18378;SDS011;27025;51.986;5.984;2023-06-24T14:37:37;5.90;;;4.60;;
18378;SDS011;27025;51.986;5.984;2023-06-24T14:40:03;4.38;;;4.03;;
18378;SDS011;27025;51.986;5.984;2023-06-24T14:42:29;6.72;;;6.05;;
18378;SDS011;27025;51.986;5.984;2023-06-24T14:44:56;5.55;;;4.35;;
18378;SDS011;27025;51.986;5.984;2023-06-24T14:47:22;7.38;;;4.50;;
18378;SDS011;27025;51.986;5.984;2023-06-24T14:49:49;4.78;;;4.38;;
18378;SDS011;27025;51.986;5.984;2023-06-24T14:52:18;4.50;;;4.10;;
18378;SDS011;27025;51.986;5.984;2023-06-24T14:54:46;4.57;;;4.18;;